^^
Datos históricos de la estación: Murcia-Puente Tocinos
Diario Informe para Abril 13, 2019 Unidades:  Ambas    Ingés   Métrico
Diario Semanal Mensual Anual
  Máxima: Mínima: Promedio:
Temperatura: 82.8 °F /  28.2 °C 68 °F /  20 °C 73.8 °F /  23.2 °C
Punto de rocio: 68.9 °F /  20.5 °C 61.9 °F /  16.6 °C 66.2 °F /  19 °C
Humedad: 91% 49.9% 79%
Velocidad viento: 10mph /  16.1km/h - 3.9mph /  6.3km/h
Racha viento: 19mph /  30.6km/h - -
Viento- - SSE
Presión: 30 in /  1016.0 hPa 29.9 in /  1013.3 hPa -
Precipitación: 0 in /  0.0 mm    
 
 
Tabla de datos para Abril 13, 2019
Hora Temperatura Punto de rocio Presión Viento Velocidad viento Racha viento Humedad Intensidad lluvia(por hora) Nubes
00:04 72 °F /  22.2 °C 68.9 °F /  20.5 °C 30in /  1015.7hPa NE 2.4mph /  3.9km/h 4mph /  6.4km/h 90% 0in /  0.0mm
00:09 72 °F /  22.2 °C 68.9 °F /  20.5 °C 30in /  1015.7hPa NNO 2.3mph /  3.7km/h 4.6mph /  7.4km/h 90% 0in /  0.0mm
00:14 72 °F /  22.2 °C 68.7 °F /  20.4 °C 30in /  1015.7hPa NO 1.8mph /  2.9km/h 5mph /  8km/h 90% 0in /  0.0mm
00:19 71.8 °F /  22.1 °C 68.7 °F /  20.4 °C 30in /  1015.7hPa NO 1.9mph /  3km/h 3.6mph /  5.8km/h 90% 0in /  0.0mm
00:24 71.8 °F /  22.1 °C 68.7 °F /  20.4 °C 30in /  1015.7hPa NO 2mph /  3.2km/h 4.6mph /  7.4km/h 90% 0in /  0.0mm
00:29 71.8 °F /  22.1 °C 68.7 °F /  20.4 °C 30in /  1015.7hPa NNO 2mph /  3.2km/h 5.2mph /  8.4km/h 90% 0in /  0.0mm
00:34 71.8 °F /  22.1 °C 68.7 °F /  20.4 °C 30in /  1015.7hPa NNO 1.8mph /  2.9km/h 5mph /  8km/h 90% 0in /  0.0mm
00:39 71.8 °F /  22.1 °C 68.7 °F /  20.4 °C 30in /  1015.6hPa NNE 1.9mph /  3.1km/h 5.8mph /  9.3km/h 90% 0in /  0.0mm
00:44 71.8 °F /  22.1 °C 68.5 °F /  20.3 °C 30in /  1015.6hPa NE 2.4mph /  3.9km/h 6.9mph /  11.1km/h 89.6% 0in /  0.0mm
00:49 72 °F /  22.2 °C 68.5 °F /  20.3 °C 30in /  1015.6hPa NE 2.7mph /  4.4km/h 7mph /  11.3km/h 89% 0in /  0.0mm
00:54 72 °F /  22.2 °C 68.5 °F /  20.3 °C 30in /  1015.5hPa NE 4mph /  6.4km/h 6.2mph /  10km/h 89% 0in /  0.0mm
00:59 72 °F /  22.2 °C 68.5 °F /  20.3 °C 30in /  1015.5hPa NE 3.9mph /  6.3km/h 6mph /  9.7km/h 89% 0in /  0.0mm
01:04 72 °F /  22.2 °C 68.5 °F /  20.3 °C 30in /  1015.5hPa NNE 3.6mph /  5.8km/h 6mph /  9.7km/h 89% 0in /  0.0mm
01:09 71.8 °F /  22.1 °C 68.4 °F /  20.2 °C 30in /  1015.5hPa NNE 3.6mph /  5.8km/h 6mph /  9.7km/h 89% 0in /  0.0mm
01:14 71.8 °F /  22.1 °C 68.4 °F /  20.2 °C 30in /  1015.5hPa NNE 3.6mph /  5.8km/h 6mph /  9.7km/h 89% 0in /  0.0mm
01:19 71.8 °F /  22.1 °C 68.4 °F /  20.2 °C 30in /  1015.5hPa NNE 3.5mph /  5.6km/h 6mph /  9.7km/h 89% 0in /  0.0mm
01:24 71.6 °F /  22 °C 68.2 °F /  20.1 °C 30in /  1015.4hPa NNE 2.9mph /  4.7km/h 4mph /  6.4km/h 89% 0in /  0.0mm
01:29 71.4 °F /  21.9 °C 68 °F /  20 °C 30in /  1015.4hPa NO 2.7mph /  4.3km/h 4.7mph /  7.6km/h 89% 0in /  0.0mm
01:34 71.4 °F /  21.9 °C 68 °F /  20 °C 30in /  1015.4hPa NO 1.8mph /  2.9km/h 5mph /  8km/h 89% 0in /  0.0mm
01:39 71.2 °F /  21.8 °C 67.8 °F /  19.9 °C 30in /  1015.3hPa ONO 1.9mph /  3.1km/h 5mph /  8km/h 89% 0in /  0.0mm
01:44 71.2 °F /  21.8 °C 67.8 °F /  19.9 °C 30in /  1015.3hPa ONO 2.4mph /  3.9km/h 5mph /  8km/h 89% 0in /  0.0mm
01:49 71.1 °F /  21.7 °C 67.6 °F /  19.8 °C 30in /  1015.4hPa Oeste 2.3mph /  3.7km/h 5mph /  8km/h 89% 0in /  0.0mm
01:54 71.1 °F /  21.7 °C 67.6 °F /  19.8 °C 30in /  1015.4hPa Oeste 2mph /  3.2km/h 2.4mph /  3.9km/h 89% 0in /  0.0mm
01:59 71.1 °F /  21.7 °C 67.5 °F /  19.7 °C 30in /  1015.4hPa NO 1.9mph /  3km/h 3.6mph /  5.8km/h 88.3% 0in /  0.0mm
02:04 71.1 °F /  21.7 °C 67.3 °F /  19.6 °C 30in /  1015.4hPa NO 1.4mph /  2.2km/h 4mph /  6.4km/h 88% 0in /  0.0mm
02:09 71.1 °F /  21.7 °C 67.3 °F /  19.6 °C 30in /  1015.4hPa NO 1.4mph /  2.2km/h 3mph /  4.8km/h 88% 0in /  0.0mm
02:14 71.1 °F /  21.7 °C 67.3 °F /  19.6 °C 30in /  1015.4hPa NO 1.4mph /  2.2km/h 3mph /  4.8km/h 88% 0in /  0.0mm
02:19 71.1 °F /  21.7 °C 67.3 °F /  19.6 °C 30in /  1015.4hPa NO 1.1mph /  1.8km/h   88% 0in /  0.0mm
02:24 71.1 °F /  21.7 °C 67.3 °F /  19.6 °C 30in /  1015.4hPa Calm     88% 0in /  0.0mm
02:29 71.1 °F /  21.7 °C 67.3 °F /  19.6 °C 30in /  1015.4hPa Calm     88% 0in /  0.0mm
02:34 71.1 °F /  21.7 °C 67.3 °F /  19.6 °C 30in /  1015.4hPa Calm     88% 0in /  0.0mm
02:39 71.1 °F /  21.7 °C 67.5 °F /  19.7 °C 30in /  1015.3hPa Calm     88.5% 0in /  0.0mm
02:44 71.2 °F /  21.8 °C 67.8 °F /  19.9 °C 30in /  1015.3hPa Calm     88.8% 0in /  0.0mm
02:49 71.4 °F /  21.9 °C 67.8 °F /  19.9 °C 30in /  1015.3hPa Calm     88.8% 0in /  0.0mm
02:54 71.4 °F /  21.9 °C 68 °F /  20 °C 30in /  1015.2hPa Calm     89% 0in /  0.0mm
02:59 71.4 °F /  21.9 °C 67.8 °F /  19.9 °C 30in /  1015.2hPa Calm     88.3% 0in /  0.0mm
03:04 71.4 °F /  21.9 °C 67.6 °F /  19.8 °C 30in /  1015.2hPa Calm   3.6mph /  5.8km/h 88% 0in /  0.0mm
03:09 71.4 °F /  21.9 °C 67.8 °F /  19.9 °C 30in /  1015.2hPa ESE 0.4mph /  0.6km/h 4mph /  6.4km/h 88.5% 0in /  0.0mm
03:14 71.4 °F /  21.9 °C 68 °F /  20 °C 30in /  1015.2hPa ESE 1.8mph /  2.9km/h 4mph /  6.4km/h 89% 0in /  0.0mm
03:19 71.2 °F /  21.8 °C 67.8 °F /  19.9 °C 30in /  1015.2hPa ESE 1.8mph /  2.9km/h 3mph /  4.8km/h 89% 0in /  0.0mm
03:24 71.2 °F /  21.8 °C 67.8 °F /  19.9 °C 30in /  1015.1hPa ESE 1.8mph /  2.9km/h 3mph /  4.8km/h 89% 0in /  0.0mm
03:29 71.2 °F /  21.8 °C 67.8 °F /  19.9 °C 30in /  1015.1hPa ESE 1.4mph /  2.3km/h 3mph /  4.8km/h 89% 0in /  0.0mm
03:34 71.2 °F /  21.8 °C 67.8 °F /  19.9 °C 30in /  1015.1hPa Calm   2.4mph /  3.9km/h 89% 0in /  0.0mm
03:39 71.2 °F /  21.8 °C 67.8 °F /  19.9 °C 30in /  1014.9hPa Calm   3.1mph /  5km/h 89% 0in /  0.0mm
03:44 71.1 °F /  21.7 °C 67.6 °F /  19.8 °C 30in /  1014.9hPa Calm   3.5mph /  5.6km/h 89% 0in /  0.0mm
03:49 71.1 °F /  21.7 °C 67.6 °F /  19.8 °C 30in /  1014.9hPa ESE 0.4mph /  0.6km/h 3mph /  4.8km/h 89% 0in /  0.0mm
03:54 71.1 °F /  21.7 °C 67.6 °F /  19.8 °C 30in /  1014.7hPa ESE 1.8mph /  2.9km/h 2.4mph /  3.9km/h 89% 0in /  0.0mm
03:59 70.9 °F /  21.6 °C 67.5 °F /  19.7 °C 30in /  1014.7hPa ESE 1.7mph /  2.7km/h 2.9mph /  4.7km/h 89% 0in /  0.0mm
04:04 70.9 °F /  21.6 °C 67.5 °F /  19.7 °C 30in /  1014.7hPa Este 1.4mph /  2.2km/h 4.6mph /  7.4km/h 89% 0in /  0.0mm
04:09 70.5 °F /  21.4 °C 67.1 °F /  19.5 °C 30in /  1014.7hPa NO 1.5mph /  2.4km/h 5mph /  8km/h 89% 0in /  0.0mm
04:14 70.5 °F /  21.4 °C 67.1 °F /  19.5 °C 30in /  1014.7hPa NO 2mph /  3.2km/h 5mph /  8km/h 89% 0in /  0.0mm
04:19 70.3 °F /  21.3 °C 67.3 °F /  19.6 °C 30in /  1014.7hPa NO 1.6mph /  2.5km/h   90% 0in /  0.0mm
04:24 70.3 °F /  21.3 °C 67.3 °F /  19.6 °C 30in /  1014.4hPa Calm     90% 0in /  0.0mm
04:29 70.3 °F /  21.3 °C 67.3 °F /  19.6 °C 30in /  1014.4hPa Calm   2.4mph /  3.9km/h 90% 0in /  0.0mm
04:34 70.2 °F /  21.2 °C 67.1 °F /  19.5 °C 30in /  1014.4hPa Calm   4.6mph /  7.4km/h 90% 0in /  0.0mm
04:39 70 °F /  21.1 °C 66.9 °F /  19.4 °C 30in /  1014.4hPa NO 0.4mph /  0.7km/h 5mph /  8km/h 90% 0in /  0.0mm
04:44 70 °F /  21.1 °C 66.9 °F /  19.4 °C 30in /  1014.4hPa NO 2mph /  3.2km/h 3mph /  4.8km/h 90% 0in /  0.0mm
04:49 70 °F /  21.1 °C 66.9 °F /  19.4 °C 30in /  1014.4hPa NO 1.9mph /  3km/h 3.5mph /  5.6km/h 90% 0in /  0.0mm
04:54 69.8 °F /  21 °C 66.7 °F /  19.3 °C 30in /  1014.4hPa NO 1.4mph /  2.2km/h 3mph /  4.8km/h 90% 0in /  0.0mm
04:59 69.8 °F /  21 °C 66.7 °F /  19.3 °C 30in /  1014.4hPa NO 1.1mph /  1.7km/h 2mph /  3.2km/h 90.4% 0in /  0.0mm
05:04 69.6 °F /  20.9 °C 66.9 °F /  19.4 °C 30in /  1014.4hPa Calm   2.4mph /  3.9km/h 91% 0in /  0.0mm
05:09 69.6 °F /  20.9 °C 66.7 °F /  19.3 °C 30in /  1014.3hPa ONO 0.3mph /  0.5km/h 3.5mph /  5.6km/h 90.7% 0in /  0.0mm
05:14 69.4 °F /  20.8 °C 66.4 °F /  19.1 °C 30in /  1014.3hPa ONO 1.4mph /  2.2km/h 3.6mph /  5.8km/h 90% 0in /  0.0mm
05:19 69.4 °F /  20.8 °C 66.4 °F /  19.1 °C 30in /  1014.3hPa ONO 1.5mph /  2.4km/h 4mph /  6.4km/h 90% 0in /  0.0mm
05:24 69.3 °F /  20.7 °C 66.4 °F /  19.1 °C 29.9in /  1014.1hPa ONO 2mph /  3.2km/h 3.5mph /  5.6km/h 90.8% 0in /  0.0mm
05:29 69.3 °F /  20.7 °C 66.6 °F /  19.2 °C 29.9in /  1014.1hPa ONO 2mph /  3.2km/h 3.5mph /  5.6km/h 91% 0in /  0.0mm
05:34 69.3 °F /  20.7 °C 66.6 °F /  19.2 °C 30in /  1014.2hPa ONO 2mph /  3.2km/h 3.5mph /  5.6km/h 91% 0in /  0.0mm
05:39 69.3 °F /  20.7 °C 66.4 °F /  19.1 °C 30in /  1014.2hPa ONO 1.9mph /  3.1km/h 3.5mph /  5.6km/h 91% 0in /  0.0mm
05:44 69.1 °F /  20.6 °C 66.4 °F /  19.1 °C 30in /  1014.2hPa ONO 1.8mph /  2.9km/h 2mph /  3.2km/h 91% 0in /  0.0mm
05:49 69.1 °F /  20.6 °C 66.4 °F /  19.1 °C 30in /  1014.3hPa ONO 1.4mph /  2.3km/h   91% 0in /  0.0mm
05:54 69.1 °F /  20.6 °C 66.4 °F /  19.1 °C 30in /  1014.3hPa Calm   2.9mph /  4.7km/h 91% 0in /  0.0mm
05:59 69.3 °F /  20.7 °C 66.6 °F /  19.2 °C 30in /  1014.3hPa SO 0.4mph /  0.7km/h 3.6mph /  5.8km/h 91% 0in /  0.0mm
06:04 69.3 °F /  20.7 °C 66.6 °F /  19.2 °C 30in /  1014.3hPa SSO 1.8mph /  2.9km/h 4mph /  6.4km/h 91% 0in /  0.0mm
06:09 69.3 °F /  20.7 °C 66.6 °F /  19.2 °C 30in /  1014.2hPa SSO 1.9mph /  3.1km/h 4.6mph /  7.4km/h 91% 0in /  0.0mm
06:14 69.3 °F /  20.7 °C 66.6 °F /  19.2 °C 30in /  1014.2hPa SSO 2.4mph /  3.9km/h 5mph /  8km/h 91% 0in /  0.0mm
06:19 69.1 °F /  20.6 °C 66.4 °F /  19.1 °C 30in /  1014.3hPa SSO 2.3mph /  3.7km/h 5mph /  8km/h 91% 0in /  0.0mm
06:24 69.1 °F /  20.6 °C 66.4 °F /  19.1 °C 30in /  1014.3hPa SSO 2mph /  3.2km/h 3.5mph /  5.6km/h 91% 0in /  0.0mm
06:29 69.1 °F /  20.6 °C 66.2 °F /  19 °C 30in /  1014.3hPa SSO 2mph /  3.2km/h 4.6mph /  7.4km/h 91% 0in /  0.0mm
06:34 69.1 °F /  20.6 °C 66.2 °F /  19 °C 30in /  1014.3hPa SSO 1.8mph /  2.9km/h 5mph /  8km/h 91% 0in /  0.0mm
06:39 68.9 °F /  20.5 °C 66.2 °F /  19 °C 30in /  1014.3hPa SSO 1.8mph /  2.9km/h 5mph /  8km/h 91% 0in /  0.0mm
06:44 68.9 °F /  20.5 °C 66.2 °F /  19 °C 30in /  1014.3hPa SSO 1.8mph /  2.9km/h 3mph /  4.8km/h 91% 0in /  0.0mm
06:49 68.9 °F /  20.5 °C 66.2 °F /  19 °C 30in /  1014.4hPa SSO 1.7mph /  2.8km/h 3.6mph /  5.8km/h 91% 0in /  0.0mm
06:54 68.7 °F /  20.4 °C 66 °F /  18.9 °C 30in /  1014.4hPa SSO 1.4mph /  2.2km/h 4mph /  6.4km/h 91% 0in /  0.0mm
06:59 68.7 °F /  20.4 °C 65.8 °F /  18.8 °C 30in /  1014.4hPa SO 1.6mph /  2.5km/h 5mph /  8km/h 90.2% 0in /  0.0mm
07:04 68.5 °F /  20.3 °C 65.3 °F /  18.5 °C 30in /  1014.5hPa OSO 2mph /  3.2km/h 5.4mph /  8.7km/h 89.3% 0in /  0.0mm
07:09 68.4 °F /  20.2 °C 65.1 °F /  18.4 °C 30in /  1014.5hPa OSO 2.1mph /  3.4km/h 5mph /  8km/h 89% 0in /  0.0mm
07:14 68.4 °F /  20.2 °C 64.9 °F /  18.3 °C 30in /  1014.5hPa OSO 2.4mph /  3.9km/h 5mph /  8km/h 89% 0in /  0.0mm
07:19 68.5 °F /  20.3 °C 65.1 °F /  18.4 °C 30in /  1014.6hPa OSO 2.4mph /  3.9km/h 5mph /  8km/h 89% 0in /  0.0mm
07:24 68.4 °F /  20.2 °C 64.8 °F /  18.2 °C 30in /  1014.6hPa SO 2.4mph /  3.9km/h 5.9mph /  9.5km/h 88.3% 0in /  0.0mm
07:29 68.4 °F /  20.2 °C 64.8 °F /  18.2 °C 30in /  1014.6hPa SO 2.7mph /  4.3km/h 6.2mph /  10km/h 88% 0in /  0.0mm
07:34 68.4 °F /  20.2 °C 64.6 °F /  18.1 °C 30in /  1014.7hPa SO 3.6mph /  5.8km/h 6mph /  9.7km/h 87.8% 0in /  0.0mm
07:39 68.2 °F /  20.1 °C 64.2 °F /  17.9 °C 30in /  1014.7hPa SO 3.5mph /  5.6km/h 6mph /  9.7km/h 87% 0in /  0.0mm
07:44 68.2 °F /  20.1 °C 64.2 °F /  17.9 °C 30in /  1014.7hPa SO 3.1mph /  5km/h 5.8mph /  9.3km/h 87% 0in /  0.0mm
07:49 68.2 °F /  20.1 °C 64.2 °F /  17.9 °C 30in /  1014.7hPa SO 3.1mph /  5km/h 6mph /  9.7km/h 87% 0in /  0.0mm
07:54 68.2 °F /  20.1 °C 64.2 °F /  17.9 °C 30in /  1014.7hPa SO 3.1mph /  5km/h 5mph /  8km/h 87% 0in /  0.0mm
07:59 68.2 °F /  20.1 °C 64.2 °F /  17.9 °C 30in /  1014.7hPa SO 3.1mph /  5km/h 5.2mph /  8.4km/h 87% 0in /  0.0mm
08:04 68.2 °F /  20.1 °C 64 °F /  17.8 °C 30in /  1014.7hPa SO 3.1mph /  5km/h 5mph /  8km/h 87% 0in /  0.0mm
08:09 68 °F /  20 °C 63.9 °F /  17.7 °C 30in /  1014.7hPa OSO 3.1mph /  5km/h 5mph /  8km/h 86.3% 0in /  0.0mm
08:14 68 °F /  20 °C 63.7 °F /  17.6 °C 30in /  1014.7hPa OSO 3.1mph /  5km/h 5mph /  8km/h 86% 0in /  0.0mm
08:19 68 °F /  20 °C 63.7 °F /  17.6 °C 30in /  1014.9hPa SO 3mph /  4.9km/h 5mph /  8km/h 86% 0in /  0.0mm
08:24 68.2 °F /  20.1 °C 63.7 °F /  17.6 °C 30in /  1014.9hPa SO 2.9mph /  4.7km/h 5.2mph /  8.4km/h 86% 0in /  0.0mm
08:29 68.2 °F /  20.1 °C 63.9 °F /  17.7 °C 30in /  1014.9hPa SO 2.9mph /  4.7km/h 5.9mph /  9.5km/h 86% 0in /  0.0mm
08:34 68.2 °F /  20.1 °C 63.9 °F /  17.7 °C 30in /  1014.9hPa OSO 3.1mph /  5km/h 6mph /  9.7km/h 86% 0in /  0.0mm
08:39 68.4 °F /  20.2 °C 64 °F /  17.8 °C 30in /  1014.9hPa OSO 3.1mph /  5km/h 5mph /  8km/h 86% 0in /  0.0mm
08:44 68.4 °F /  20.2 °C 64 °F /  17.8 °C 30in /  1014.9hPa OSO 3.1mph /  5km/h 5mph /  8km/h 86% 0in /  0.0mm
08:49 68.4 °F /  20.2 °C 64 °F /  17.8 °C 30in /  1015.0hPa OSO 2.9mph /  4.6km/h 4mph /  6.4km/h 86% 0in /  0.0mm
08:54 68.4 °F /  20.2 °C 63.9 °F /  17.7 °C 30in /  1015.0hPa OSO 2mph /  3.2km/h 4mph /  6.4km/h 86% 0in /  0.0mm
08:59 68.4 °F /  20.2 °C 63.9 °F /  17.7 °C 30in /  1015.0hPa OSO 2.1mph /  3.4km/h 5.2mph /  8.4km/h 86% 0in /  0.0mm
09:04 68.4 °F /  20.2 °C 64 °F /  17.8 °C 30in /  1015.2hPa OSO 2.4mph /  3.9km/h 5.9mph /  9.5km/h 86% 0in /  0.0mm
09:09 68.4 °F /  20.2 °C 64 °F /  17.8 °C 30in /  1015.2hPa OSO 2.5mph /  4.1km/h 6mph /  9.7km/h 86% 0in /  0.0mm
09:14 68.4 °F /  20.2 °C 64 °F /  17.8 °C 30in /  1015.2hPa SO 3.1mph /  5km/h 5mph /  8km/h 86% 0in /  0.0mm
09:19 68.5 °F /  20.3 °C 64.4 °F /  18 °C 30in /  1015.3hPa SO 2.9mph /  4.6km/h 5mph /  8km/h 86.7% 0in /  0.0mm
09:24 68.9 °F /  20.5 °C 64.9 °F /  18.3 °C 30in /  1015.3hPa SSO 2mph /  3.2km/h 2.9mph /  4.7km/h 86.9% 0in /  0.0mm
09:29 69.4 °F /  20.8 °C 65.1 °F /  18.4 °C 30in /  1015.3hPa SSO 1.9mph /  3km/h 4mph /  6.4km/h 85.6% 0in /  0.0mm
09:34 70 °F /  21.1 °C 65.1 °F /  18.4 °C 30in /  1015.3hPa Sur 1.4mph /  2.2km/h 5mph /  8km/h 84.2% 0in /  0.0mm
09:39 70.3 °F /  21.3 °C 65.1 °F /  18.4 °C 30in /  1015.3hPa Sur 1.5mph /  2.4km/h 4mph /  6.4km/h 83.5% 0in /  0.0mm
09:44 70.5 °F /  21.4 °C 65.1 °F /  18.4 °C 30in /  1015.3hPa Sur 1.8mph /  2.9km/h 4.6mph /  7.4km/h 83% 0in /  0.0mm
09:49 70.9 °F /  21.6 °C 65.1 °F /  18.4 °C 30in /  1015.4hPa SSO 1.9mph /  3km/h 5mph /  8km/h 82.2% 0in /  0.0mm
09:54 70.7 °F /  21.5 °C 64.9 °F /  18.3 °C 30in /  1015.4hPa SSO 2mph /  3.2km/h 5mph /  8km/h 82% 0in /  0.0mm
09:59 70.5 °F /  21.4 °C 64.8 °F /  18.2 °C 30in /  1015.4hPa SSO 2.3mph /  3.7km/h 5.9mph /  9.5km/h 82% 0in /  0.0mm
10:04 70.5 °F /  21.4 °C 64.9 °F /  18.3 °C 30in /  1015.5hPa SSO 3.1mph /  5km/h 6.9mph /  11.1km/h 82.5% 0in /  0.0mm
10:09 70.7 °F /  21.5 °C 64.9 °F /  18.3 °C 30in /  1015.5hPa SO 3.2mph /  5.2km/h 7.4mph /  11.9km/h 82% 0in /  0.0mm
10:14 70.9 °F /  21.6 °C 64.9 °F /  18.3 °C 30in /  1015.5hPa OSO 3.6mph /  5.8km/h 7.4mph /  11.9km/h 81.8% 0in /  0.0mm
10:19 70.7 °F /  21.5 °C 64.9 °F /  18.3 °C 30in /  1015.6hPa SO 3.9mph /  6.2km/h 8.1mph /  13km/h 81.8% 0in /  0.0mm
10:24 70.9 °F /  21.6 °C 64.9 °F /  18.3 °C 30in /  1015.6hPa OSO 4.7mph /  7.6km/h 8.1mph /  13km/h 81.9% 0in /  0.0mm
10:29 70.9 °F /  21.6 °C 65.1 °F /  18.4 °C 30in /  1015.6hPa SO 4.7mph /  7.6km/h 8mph /  12.9km/h 81.8% 0in /  0.0mm
10:34 71.1 °F /  21.7 °C 65.3 °F /  18.5 °C 30in /  1015.8hPa SO 4.7mph /  7.6km/h 7mph /  11.3km/h 82% 0in /  0.0mm
10:39 71.2 °F /  21.8 °C 65.1 °F /  18.4 °C 30in /  1015.8hPa Oeste 4.4mph /  7.1km/h 6.4mph /  10.3km/h 81.1% 0in /  0.0mm
10:44 71.4 °F /  21.9 °C 65.3 °F /  18.5 °C 30in /  1015.8hPa OSO 3.1mph /  5km/h 7mph /  11.3km/h 81% 0in /  0.0mm
10:49 71.6 °F /  22 °C 65.5 °F /  18.6 °C 30in /  1015.8hPa Oeste 3.1mph /  5km/h 7mph /  11.3km/h 80.9% 0in /  0.0mm
10:54 72 °F /  22.2 °C 65.5 °F /  18.6 °C 30in /  1015.8hPa OSO 3.1mph /  5km/h 6.2mph /  10km/h 80% 0in /  0.0mm
10:59 72.1 °F /  22.3 °C 65.5 °F /  18.6 °C 30in /  1015.8hPa OSO 3.1mph /  5km/h 6.2mph /  10km/h 79.5% 0in /  0.0mm
11:04 72.3 °F /  22.4 °C 65.5 °F /  18.6 °C 30in /  1015.9hPa SSO 3.1mph /  5km/h 6mph /  9.7km/h 79% 0in /  0.0mm
11:09 72.9 °F /  22.7 °C 65.7 °F /  18.7 °C 30in /  1015.9hPa SSO 3.1mph /  5km/h 5.9mph /  9.5km/h 78.5% 0in /  0.0mm
11:14 73 °F /  22.8 °C 65.7 °F /  18.7 °C 30in /  1015.9hPa SSO 3.1mph /  5km/h 6mph /  9.7km/h 77.8% 0in /  0.0mm
11:19 73.2 °F /  22.9 °C 65.7 °F /  18.7 °C 30in /  1016.0hPa SSO 3.2mph /  5.2km/h 6.4mph /  10.3km/h 77.1% 0in /  0.0mm
11:24 73.4 °F /  23 °C 65.7 °F /  18.7 °C 30in /  1016.0hPa SSO 3.6mph /  5.8km/h 6.9mph /  11.1km/h 77% 0in /  0.0mm
11:29 73.6 °F /  23.1 °C 65.7 °F /  18.7 °C 30in /  1016.0hPa SO 3.9mph /  6.2km/h 8.1mph /  13km/h 76.4% 0in /  0.0mm
11:34 73.6 °F /  23.1 °C 65.7 °F /  18.7 °C 30in /  1016.0hPa SO 4.7mph /  7.6km/h 8mph /  12.9km/h 76.3% 0in /  0.0mm
11:39 73.8 °F /  23.2 °C 65.8 °F /  18.8 °C 30in /  1016.0hPa Sur 4.4mph /  7.1km/h 6mph /  9.7km/h 76% 0in /  0.0mm
11:44 74.5 °F /  23.6 °C 66 °F /  18.9 °C 30in /  1016.0hPa Sur 3.1mph /  5km/h 5.4mph /  8.7km/h 75.1% 0in /  0.0mm
11:49 74.8 °F /  23.8 °C 65.7 °F /  18.7 °C 30in /  1016.0hPa SO 3.1mph /  5km/h 7.4mph /  11.9km/h 73.2% 0in /  0.0mm
11:54 75 °F /  23.9 °C 65.8 °F /  18.8 °C 30in /  1015.9hPa ONO 3.1mph /  5km/h 7mph /  11.3km/h 72.9% 0in /  0.0mm
11:59 75.6 °F /  24.2 °C 65.8 °F /  18.8 °C 30in /  1015.9hPa SSO 2.8mph /  4.5km/h 5mph /  8km/h 72.2% 0in /  0.0mm
12:04 76.1 °F /  24.5 °C 65.8 °F /  18.8 °C 30in /  1015.9hPa Sur 2mph /  3.2km/h 5mph /  8km/h 70.5% 0in /  0.0mm
12:09 76.6 °F /  24.8 °C 65.8 °F /  18.8 °C 30in /  1015.9hPa SE 2mph /  3.2km/h 5mph /  8km/h 69.5% 0in /  0.0mm
12:14 77.2 °F /  25.1 °C 65.7 °F /  18.7 °C 30in /  1015.9hPa Oeste 1.8mph /  2.9km/h 5.2mph /  8.4km/h 67.7% 0in /  0.0mm
12:19 77.4 °F /  25.2 °C 65.5 °F /  18.6 °C 30in /  1015.9hPa Oeste 1.9mph /  3.1km/h 5mph /  8km/h 67% 0in /  0.0mm
12:24 77.2 °F /  25.1 °C 65.3 °F /  18.5 °C 30in /  1015.8hPa ONO 2.4mph /  3.9km/h 5mph /  8km/h 67% 0in /  0.0mm
12:29 77.2 °F /  25.1 °C 65.5 °F /  18.6 °C 30in /  1015.8hPa North 2.3mph /  3.7km/h 5.9mph /  9.5km/h 67.5% 0in /  0.0mm
12:34 77.5 °F /  25.3 °C 65.7 °F /  18.7 °C 30in /  1015.8hPa North 2mph /  3.2km/h 6mph /  9.7km/h 67% 0in /  0.0mm
12:39 77.5 °F /  25.3 °C 65.5 °F /  18.6 °C 30in /  1015.7hPa NNO 2.2mph /  3.6km/h 6mph /  9.7km/h 66.3% 0in /  0.0mm
12:44 77.5 °F /  25.3 °C 65.3 °F /  18.5 °C 30in /  1015.7hPa ONO 3.1mph /  5km/h 6.9mph /  11.1km/h 66% 0in /  0.0mm
12:49 77.5 °F /  25.3 °C 65.1 °F /  18.4 °C 30in /  1015.7hPa NE 3.1mph /  5km/h 7mph /  11.3km/h 65.6% 0in /  0.0mm
12:54 78.1 °F /  25.6 °C 65.1 °F /  18.4 °C 30in /  1015.5hPa ESE 3.1mph /  5km/h 5mph /  8km/h 64.8% 0in /  0.0mm
12:59 78.3 °F /  25.7 °C 65.1 °F /  18.4 °C 30in /  1015.5hPa NNO 2.9mph /  4.7km/h 5mph /  8km/h 64% 0in /  0.0mm
13:04 78.4 °F /  25.8 °C 65.1 °F /  18.4 °C 30in /  1015.5hPa North 2.4mph /  3.9km/h 7.4mph /  11.9km/h 63.9% 0in /  0.0mm
13:09 78.6 °F /  25.9 °C 65.3 °F /  18.5 °C 30in /  1015.4hPa ENE 2.5mph /  4.1km/h 7mph /  11.3km/h 64% 0in /  0.0mm
13:14 79.2 °F /  26.2 °C 65.5 °F /  18.6 °C 30in /  1015.4hPa NNE 3.1mph /  5km/h 8.5mph /  13.7km/h 63.3% 0in /  0.0mm
13:19 79.2 °F /  26.2 °C 65.3 °F /  18.5 °C 30in /  1015.4hPa NE 3.2mph /  5.1km/h 9mph /  14.5km/h 62.5% 0in /  0.0mm
13:24 79 °F /  26.1 °C 64.9 °F /  18.3 °C 30in /  1015.3hPa ENE 3.6mph /  5.8km/h 8.5mph /  13.7km/h 62.3% 0in /  0.0mm
13:29 79.2 °F /  26.2 °C 65.5 °F /  18.6 °C 30in /  1015.3hPa NE 3.7mph /  6km/h 9mph /  14.5km/h 63% 0in /  0.0mm
13:34 79.3 °F /  26.3 °C 65.1 °F /  18.4 °C 30in /  1015.3hPa NE 4.3mph /  6.9km/h 10.4mph /  16.7km/h 62.2% 0in /  0.0mm
13:39 79.3 °F /  26.3 °C 64.8 °F /  18.2 °C 30in /  1015.0hPa NNE 4.4mph /  7.1km/h 10mph /  16.1km/h 61.1% 0in /  0.0mm
13:44 79.5 °F /  26.4 °C 64.9 °F /  18.3 °C 30in /  1015.0hPa NE 4.7mph /  7.6km/h 7mph /  11.3km/h 61% 0in /  0.0mm
13:49 80.1 °F /  26.7 °C 64.8 °F /  18.2 °C 30in /  1015.0hPa NE 4.7mph /  7.6km/h 9.7mph /  15.6km/h 60% 0in /  0.0mm
13:54 80.1 °F /  26.7 °C 64.8 °F /  18.2 °C 30in /  1014.8hPa ENE 4.7mph /  7.6km/h 10mph /  16.1km/h 59.5% 0in /  0.0mm
13:59 80.2 °F /  26.8 °C 64.9 °F /  18.3 °C 30in /  1014.8hPa NE 4.7mph /  7.6km/h 9.2mph /  14.8km/h 59.5% 0in /  0.0mm
14:04 80.8 °F /  27.1 °C 64.9 °F /  18.3 °C 30in /  1014.8hPa ENE 4.7mph /  7.6km/h 9mph /  14.5km/h 58.8% 0in /  0.0mm
14:09 80.8 °F /  27.1 °C 64.9 °F /  18.3 °C 30in /  1014.6hPa NNE 4.6mph /  7.4km/h 9mph /  14.5km/h 59% 0in /  0.0mm
14:14 81 °F /  27.2 °C 64.8 °F /  18.2 °C 30in /  1014.6hPa ENE 4.3mph /  6.9km/h 9.7mph /  15.6km/h 58.2% 0in /  0.0mm
14:19 81.3 °F /  27.4 °C 63.3 °F /  17.4 °C 30in /  1014.6hPa ESE 4.3mph /  7km/h 10.4mph /  16.7km/h 54.4% 0in /  0.0mm
14:24 81.3 °F /  27.4 °C 62.6 °F /  17 °C 30in /  1014.4hPa ENE 4.7mph /  7.6km/h 10.4mph /  16.7km/h 53% 0in /  0.0mm
14:29 81.7 °F /  27.6 °C 62.8 °F /  17.1 °C 30in /  1014.4hPa ENE 4.8mph /  7.7km/h 10mph /  16.1km/h 52.8% 0in /  0.0mm
14:34 82 °F /  27.8 °C 62.6 °F /  17 °C 30in /  1014.4hPa ESE 5.2mph /  8.4km/h 11.5mph /  18.5km/h 51.7% 0in /  0.0mm
14:39 82.2 °F /  27.9 °C 62.2 °F /  16.8 °C 30in /  1014.2hPa ESE 5.2mph /  8.4km/h 12mph /  19.3km/h 51.1% 0in /  0.0mm
14:44 82.4 °F /  28 °C 62.2 °F /  16.8 °C 30in /  1014.2hPa SE 5.4mph /  8.7km/h 11.2mph /  18km/h 50.8% 0in /  0.0mm
14:49 82.2 °F /  27.9 °C 61.9 °F /  16.6 °C 30in /  1014.2hPa ESE 5.6mph /  9km/h 15mph /  24.1km/h 50% 0in /  0.0mm
14:54 82.4 °F /  28 °C 62.1 °F /  16.7 °C 29.9in /  1013.9hPa ESE 6.2mph /  10km/h 15mph /  24.1km/h 50.4% 0in /  0.0mm
14:59 82.4 °F /  28 °C 61.9 °F /  16.6 °C 29.9in /  1013.9hPa ESE 6.5mph /  10.5km/h 13mph /  20.9km/h 50.1% 0in /  0.0mm
15:04 82.6 °F /  28.1 °C 62.1 °F /  16.7 °C 29.9in /  1013.9hPa SSE 7.4mph /  11.9km/h 13.5mph /  21.7km/h 50% 0in /  0.0mm
15:09 82.6 °F /  28.1 °C 62.1 °F /  16.7 °C 29.9in /  1013.8hPa Este 7.2mph /  11.6km/h 14mph /  22.5km/h 50% 0in /  0.0mm
15:14 82.8 °F /  28.2 °C 62.1 °F /  16.7 °C 29.9in /  1013.8hPa ESE 6.4mph /  10.3km/h 14mph /  22.5km/h 49.9% 0in /  0.0mm
15:19 82.4 °F /  28 °C 61.9 °F /  16.6 °C 29.9in /  1013.8hPa Este 6.6mph /  10.7km/h 14mph /  22.5km/h 50% 0in /  0.0mm
15:24 82.4 °F /  28 °C 62.2 °F /  16.8 °C 29.9in /  1013.6hPa ESE 7.6mph /  12.2km/h 13mph /  20.9km/h 50.8% 0in /  0.0mm
15:29 82.8 °F /  28.2 °C 62.6 °F /  17 °C 29.9in /  1013.6hPa SE 7.6mph /  12.2km/h 13.8mph /  22.2km/h 51% 0in /  0.0mm
15:34 82.8 °F /  28.2 °C 62.8 °F /  17.1 °C 29.9in /  1013.6hPa ESE 7.4mph /  11.9km/h 14mph /  22.5km/h 50.8% 0in /  0.0mm
15:39 82.8 °F /  28.2 °C 63.3 °F /  17.4 °C 29.9in /  1013.5hPa Este 7.1mph /  11.4km/h 10.7mph /  17.2km/h 52.1% 0in /  0.0mm
15:44 82.6 °F /  28.1 °C 63.5 °F /  17.5 °C 29.9in /  1013.5hPa ESE 5.9mph /  9.5km/h 13.8mph /  22.2km/h 52.5% 0in /  0.0mm
15:49 82.4 °F /  28 °C 63.1 °F /  17.3 °C 29.9in /  1013.5hPa ESE 6.2mph /  10km/h 14mph /  22.5km/h 52.4% 0in /  0.0mm
15:54 82.4 °F /  28 °C 63.7 °F /  17.6 °C 29.9in /  1013.4hPa ESE 7.6mph /  12.2km/h 10mph /  16.1km/h 53% 0in /  0.0mm
15:59 82.6 °F /  28.1 °C 64 °F /  17.8 °C 29.9in /  1013.4hPa ESE 7mph /  11.3km/h 11.5mph /  18.5km/h 53.5% 0in /  0.0mm
16:04 82.2 °F /  27.9 °C 63.9 °F /  17.7 °C 29.9in /  1013.4hPa ESE 5.4mph /  8.7km/h 12mph /  19.3km/h 53.9% 0in /  0.0mm
16:09 82.6 °F /  28.1 °C 64 °F /  17.8 °C 29.9in /  1013.3hPa ESE 5.8mph /  9.4km/h 12.7mph /  20.4km/h 53.8% 0in /  0.0mm
16:14 82.2 °F /  27.9 °C 64 °F /  17.8 °C 29.9in /  1013.3hPa ESE 7.6mph /  12.2km/h 13mph /  20.9km/h 54.5% 0in /  0.0mm
16:19 82.4 °F /  28 °C 64.6 °F /  18.1 °C 29.9in /  1013.3hPa ESE 7.3mph /  11.8km/h 12mph /  19.3km/h 54.8% 0in /  0.0mm
16:24 82.6 °F /  28.1 °C 64.4 °F /  18 °C 29.9in /  1013.3hPa SE 6.4mph /  10.3km/h 12.3mph /  19.8km/h 54.3% 0in /  0.0mm
16:29 82.8 °F /  28.2 °C 64.6 °F /  18.1 °C 29.9in /  1013.3hPa ESE 6.6mph /  10.6km/h 13mph /  20.9km/h 54.3% 0in /  0.0mm
16:34 82.8 °F /  28.2 °C 64.8 °F /  18.2 °C 29.9in /  1013.4hPa SE 7.4mph /  11.9km/h 13.5mph /  21.7km/h 54.6% 0in /  0.0mm
16:39 82.8 °F /  28.2 °C 64.6 °F /  18.1 °C 29.9in /  1013.4hPa SE 7.6mph /  12.2km/h 14.5mph /  23.3km/h 54.5% 0in /  0.0mm
16:44 82.4 °F /  28 °C 64.9 °F /  18.3 °C 29.9in /  1013.4hPa SE 8.5mph /  13.7km/h 15mph /  24.1km/h 55.5% 0in /  0.0mm
16:49 82.4 °F /  28 °C 65.3 °F /  18.5 °C 29.9in /  1013.4hPa ESE 8.4mph /  13.5km/h 15.2mph /  24.5km/h 56.3% 0in /  0.0mm
16:54 82 °F /  27.8 °C 65.7 °F /  18.7 °C 29.9in /  1013.4hPa ESE 8.1mph /  13km/h 18.1mph /  29.1km/h 57.6% 0in /  0.0mm
16:59 81.9 °F /  27.7 °C 65.8 °F /  18.8 °C 29.9in /  1013.4hPa ESE 8.5mph /  13.7km/h 18mph /  29km/h 58.5% 0in /  0.0mm
17:04 81.9 °F /  27.7 °C 66.2 °F /  19 °C 29.9in /  1013.4hPa ESE 9.7mph /  15.6km/h 15mph /  24.1km/h 59.2% 0in /  0.0mm
17:09 81.7 °F /  27.6 °C 66.4 °F /  19.1 °C 29.9in /  1013.4hPa SE 9.5mph /  15.3km/h 15.2mph /  24.5km/h 60% 0in /  0.0mm
17:14 81.3 °F /  27.4 °C 66.4 °F /  19.1 °C 29.9in /  1013.4hPa ESE 8.7mph /  14km/h 16.3mph /  26.2km/h 60.5% 0in /  0.0mm
17:19 81.1 °F /  27.3 °C 66.6 °F /  19.2 °C 29.9in /  1013.5hPa ESE 9mph /  14.5km/h 17.3mph /  27.8km/h 61.5% 0in /  0.0mm
17:24 80.8 °F /  27.1 °C 66.7 °F /  19.3 °C 29.9in /  1013.5hPa ESE 10mph /  16.1km/h 17.3mph /  27.8km/h 62.5% 0in /  0.0mm
17:29 80.6 °F /  27 °C 66.7 °F /  19.3 °C 29.9in /  1013.5hPa ESE 10mph /  16.1km/h 16mph /  25.7km/h 63% 0in /  0.0mm
17:34 80.4 °F /  26.9 °C 67.1 °F /  19.5 °C 29.9in /  1013.6hPa ESE 10mph /  16.1km/h 16.1mph /  25.9km/h 63.7% 0in /  0.0mm
17:39 80.2 °F /  26.8 °C 67.1 °F /  19.5 °C 29.9in /  1013.6hPa ESE 9.9mph /  16km/h 16mph /  25.7km/h 64.2% 0in /  0.0mm
17:44 80.2 °F /  26.8 °C 67.3 °F /  19.6 °C 29.9in /  1013.6hPa ESE 9.7mph /  15.6km/h 18.4mph /  29.6km/h 65% 0in /  0.0mm
17:49 80.2 °F /  26.8 °C 67.3 °F /  19.6 °C 29.9in /  1013.6hPa ESE 9.5mph /  15.3km/h 18mph /  29km/h 65% 0in /  0.0mm
17:54 80.2 °F /  26.8 °C 67.5 °F /  19.7 °C 29.9in /  1013.6hPa ESE 8.7mph /  14km/h 15mph /  24.1km/h 65.1% 0in /  0.0mm
17:59 80.1 °F /  26.7 °C 67.6 °F /  19.8 °C 29.9in /  1013.6hPa ESE 8.7mph /  14km/h 15mph /  24.1km/h 66% 0in /  0.0mm
18:04 79.7 °F /  26.5 °C 67.6 °F /  19.8 °C 29.9in /  1013.7hPa ESE 8.7mph /  14km/h 15mph /  24.1km/h 66.8% 0in /  0.0mm
18:09 79.3 °F /  26.3 °C 67.8 °F /  19.9 °C 29.9in /  1013.7hPa ESE 8.8mph /  14.2km/h 15mph /  24.1km/h 67.6% 0in /  0.0mm
18:14 79.3 °F /  26.3 °C 67.8 °F /  19.9 °C 29.9in /  1013.7hPa ESE 9.2mph /  14.8km/h 15mph /  24.1km/h 68% 0in /  0.0mm
18:19 79.2 °F /  26.2 °C 67.6 °F /  19.8 °C 29.9in /  1013.7hPa ESE 8.9mph /  14.4km/h 15mph /  24.1km/h 68% 0in /  0.0mm
18:24 79 °F /  26.1 °C 67.8 °F /  19.9 °C 29.9in /  1013.6hPa ESE 8.1mph /  13km/h 17.3mph /  27.8km/h 68.9% 0in /  0.0mm
18:29 78.6 °F /  25.9 °C 67.8 °F /  19.9 °C 29.9in /  1013.6hPa ESE 8.3mph /  13.4km/h 17mph /  27.4km/h 69.4% 0in /  0.0mm
18:34 78.4 °F /  25.8 °C 67.8 °F /  19.9 °C 29.9in /  1013.8hPa ESE 9.2mph /  14.8km/h 15mph /  24.1km/h 70% 0in /  0.0mm
18:39 78.3 °F /  25.7 °C 67.8 °F /  19.9 °C 29.9in /  1013.8hPa ESE 8.6mph /  13.9km/h 15mph /  24.1km/h 70% 0in /  0.0mm
18:44 78.3 °F /  25.7 °C 67.6 °F /  19.8 °C 29.9in /  1013.8hPa ESE 6.4mph /  10.3km/h 19mph /  30.6km/h 70.2% 0in /  0.0mm
18:49 77.7 °F /  25.4 °C 67.6 °F /  19.8 °C 29.9in /  1013.8hPa ESE 6.8mph /  11km/h 19mph /  30.6km/h 71% 0in /  0.0mm
18:54 77.5 °F /  25.3 °C 67.8 °F /  19.9 °C 29.9in /  1013.8hPa ESE 8.5mph /  13.7km/h 14mph /  22.5km/h 72% 0in /  0.0mm
18:59 77.4 °F /  25.2 °C 67.6 °F /  19.8 °C 29.9in /  1013.8hPa ESE 8.1mph /  13km/h 14mph /  22.5km/h 72% 0in /  0.0mm
19:04 77.4 °F /  25.2 °C 67.8 °F /  19.9 °C 29.9in /  1013.8hPa ESE 6.9mph /  11.1km/h 12mph /  19.3km/h 72.7% 0in /  0.0mm
19:09 77.2 °F /  25.1 °C 67.8 °F /  19.9 °C 29.9in /  1013.8hPa ESE 7mph /  11.3km/h 14mph /  22.5km/h 73% 0in /  0.0mm
19:14 76.8 °F /  24.9 °C 67.6 °F /  19.8 °C 29.9in /  1013.8hPa ESE 7.6mph /  12.2km/h 14mph /  22.5km/h 73.2% 0in /  0.0mm
19:19 76.6 °F /  24.8 °C 67.8 °F /  19.9 °C 29.9in /  1013.8hPa ESE 7.5mph /  12km/h 13mph /  20.9km/h 74% 0in /  0.0mm
19:24 76.5 °F /  24.7 °C 67.6 °F /  19.8 °C 29.9in /  1013.8hPa Este 6.9mph /  11.1km/h 12mph /  19.3km/h 74.1% 0in /  0.0mm
19:29 76.5 °F /  24.7 °C 67.8 °F /  19.9 °C 29.9in /  1013.8hPa Este 6.8mph /  10.9km/h 12mph /  19.3km/h 75% 0in /  0.0mm
19:34 76.3 °F /  24.6 °C 67.8 °F /  19.9 °C 29.9in /  1013.8hPa ENE 6.2mph /  10km/h 12mph /  19.3km/h 75% 0in /  0.0mm
19:39 76.1 °F /  24.5 °C 67.6 °F /  19.8 °C 29.9in /  1013.7hPa NE 5.6mph /  9km/h 7mph /  11.3km/h 75% 0in /  0.0mm
19:44 75.9 °F /  24.4 °C 67.6 °F /  19.8 °C 29.9in /  1013.7hPa NE 3.6mph /  5.8km/h 8.1mph /  13km/h 75.5% 0in /  0.0mm
19:49 75.7 °F /  24.3 °C 67.6 °F /  19.8 °C 29.9in /  1013.8hPa NE 3.9mph /  6.2km/h 8.1mph /  13km/h 76% 0in /  0.0mm
19:54 75.7 °F /  24.3 °C 67.6 °F /  19.8 °C 29.9in /  1013.8hPa NE 4.7mph /  7.6km/h 8mph /  12.9km/h 76% 0in /  0.0mm
19:59 75.6 °F /  24.2 °C 67.5 °F /  19.7 °C 29.9in /  1013.8hPa NE 4.3mph /  7km/h 6mph /  9.7km/h 76% 0in /  0.0mm
20:04 75.4 °F /  24.1 °C 67.6 °F /  19.8 °C 29.9in /  1014.1hPa NE 3.1mph /  5km/h 5.2mph /  8.4km/h 76.8% 0in /  0.0mm
20:09 75.2 °F /  24 °C 67.6 °F /  19.8 °C 29.9in /  1014.1hPa NE 3.2mph /  5.2km/h 6.9mph /  11.1km/h 77.2% 0in /  0.0mm
20:14 74.8 °F /  23.8 °C 67.6 °F /  19.8 °C 29.9in /  1014.1hPa NE 3.6mph /  5.8km/h 8.5mph /  13.7km/h 78.2% 0in /  0.0mm
20:19 74.5 °F /  23.6 °C 67.6 °F /  19.8 °C 30in /  1014.2hPa NE 3.9mph /  6.3km/h 9mph /  14.5km/h 79.4% 0in /  0.0mm
20:24 74.1 °F /  23.4 °C 67.6 °F /  19.8 °C 30in /  1014.2hPa NE 5.2mph /  8.4km/h 9.2mph /  14.8km/h 80% 0in /  0.0mm
20:29 73.9 °F /  23.3 °C 67.8 °F /  19.9 °C 30in /  1014.2hPa NE 5.2mph /  8.4km/h 9mph /  14.5km/h 80.9% 0in /  0.0mm
20:34 73.9 °F /  23.3 °C 67.8 °F /  19.9 °C 30in /  1014.3hPa NE 5.2mph /  8.4km/h 7mph /  11.3km/h 81% 0in /  0.0mm
20:39 73.8 °F /  23.2 °C 67.6 °F /  19.8 °C 30in /  1014.3hPa NE 5.2mph /  8.4km/h 10.4mph /  16.7km/h 81% 0in /  0.0mm
20:44 73.6 °F /  23.1 °C 67.6 °F /  19.8 °C 30in /  1014.3hPa NE 5.4mph /  8.7km/h 10mph /  16.1km/h 81.9% 0in /  0.0mm
20:49 73.2 °F /  22.9 °C 67.5 °F /  19.7 °C 30in /  1014.3hPa NE 5.5mph /  8.9km/h 9.2mph /  14.8km/h 82.1% 0in /  0.0mm
20:54 73 °F /  22.8 °C 67.6 °F /  19.8 °C 30in /  1014.3hPa NNE 5.9mph /  9.5km/h 9mph /  14.5km/h 83% 0in /  0.0mm
20:59 72.9 °F /  22.7 °C 67.5 °F /  19.7 °C 30in /  1014.3hPa NNE 5.7mph /  9.2km/h 8.5mph /  13.7km/h 83% 0in /  0.0mm
21:04 72.9 °F /  22.7 °C 67.6 °F /  19.8 °C 30in /  1014.4hPa NNE 5.2mph /  8.4km/h 9mph /  14.5km/h 83.7% 0in /  0.0mm
21:09 72.7 °F /  22.6 °C 67.6 °F /  19.8 °C 30in /  1014.4hPa NNE 5.2mph /  8.4km/h 9.2mph /  14.8km/h 84% 0in /  0.0mm
21:14 72.3 °F /  22.4 °C 67.5 °F /  19.7 °C 30in /  1014.4hPa NNE 5.2mph /  8.4km/h 9mph /  14.5km/h 84.4% 0in /  0.0mm
21:19 72.3 °F /  22.4 °C 67.6 °F /  19.8 °C 30in /  1014.4hPa NNE 5.2mph /  8.4km/h 9.2mph /  14.8km/h 85% 0in /  0.0mm
21:24 72.1 °F /  22.3 °C 67.5 °F /  19.7 °C 30in /  1014.4hPa NNE 5.2mph /  8.4km/h 9mph /  14.5km/h 85% 0in /  0.0mm
21:29 72.1 °F /  22.3 °C 67.6 °F /  19.8 °C 30in /  1014.4hPa NNE 5.1mph /  8.2km/h 8.1mph /  13km/h 85.6% 0in /  0.0mm
21:34 72 °F /  22.2 °C 67.5 °F /  19.7 °C 30in /  1014.4hPa NNE 4.7mph /  7.6km/h 8.1mph /  13km/h 86% 0in /  0.0mm
21:39 72 °F /  22.2 °C 67.5 °F /  19.7 °C 30in /  1014.4hPa NE 4.8mph /  7.8km/h 8.5mph /  13.7km/h 86.2% 0in /  0.0mm
21:44 71.8 °F /  22.1 °C 67.6 °F /  19.8 °C 30in /  1014.4hPa NE 5.4mph /  8.7km/h 9mph /  14.5km/h 87% 0in /  0.0mm
21:49 71.8 °F /  22.1 °C 67.6 °F /  19.8 °C 30in /  1014.4hPa NNE 5.3mph /  8.6km/h 9.2mph /  14.8km/h 87% 0in /  0.0mm
21:54 71.6 °F /  22 °C 67.5 °F /  19.7 °C 30in /  1014.3hPa NE 5.2mph /  8.4km/h 9mph /  14.5km/h 87.2% 0in /  0.0mm
21:59 71.4 °F /  21.9 °C 67.6 °F /  19.8 °C 30in /  1014.3hPa NE 5mph /  8km/h 8mph /  12.9km/h 88% 0in /  0.0mm
22:04 71.4 °F /  21.9 °C 67.6 °F /  19.8 °C 30in /  1014.4hPa NE 4.3mph /  6.9km/h 6.9mph /  11.1km/h 88% 0in /  0.0mm
22:09 71.4 °F /  21.9 °C 67.6 °F /  19.8 °C 30in /  1014.4hPa NE 4.3mph /  6.9km/h 7mph /  11.3km/h 88% 0in /  0.0mm
22:14 71.2 °F /  21.8 °C 67.6 °F /  19.8 °C 30in /  1014.4hPa NE 4.3mph /  6.9km/h 7mph /  11.3km/h 88% 0in /  0.0mm
22:19 71.2 °F /  21.8 °C 67.6 °F /  19.8 °C 30in /  1014.4hPa NE 4.4mph /  7.1km/h 8.5mph /  13.7km/h 88.5% 0in /  0.0mm
22:24 71.2 °F /  21.8 °C 67.8 °F /  19.9 °C 30in /  1014.3hPa NE 4.7mph /  7.6km/h 9mph /  14.5km/h 89% 0in /  0.0mm
22:29 71.2 °F /  21.8 °C 67.8 °F /  19.9 °C 30in /  1014.3hPa NE 4.8mph /  7.7km/h 8.5mph /  13.7km/h 89% 0in /  0.0mm
22:34 71.1 °F /  21.7 °C 67.6 °F /  19.8 °C 30in /  1014.4hPa NE 5.2mph /  8.4km/h 9mph /  14.5km/h 89% 0in /  0.0mm
22:39 70.9 °F /  21.6 °C 67.5 °F /  19.7 °C 30in /  1014.4hPa NE 5.1mph /  8.2km/h 7.4mph /  11.9km/h 89% 0in /  0.0mm
22:44 70.5 °F /  21.4 °C 67.1 °F /  19.5 °C 30in /  1014.4hPa NE 4.7mph /  7.6km/h 7.6mph /  12.2km/h 89% 0in /  0.0mm
22:49 70.5 °F /  21.4 °C 67.3 °F /  19.6 °C 30in /  1014.4hPa NE 4.6mph /  7.4km/h 8.1mph /  13km/h 89.5% 0in /  0.0mm
22:54 70.3 °F /  21.3 °C 67.3 °F /  19.6 °C 30in /  1014.4hPa NE 4.3mph /  6.9km/h 9.2mph /  14.8km/h 90% 0in /  0.0mm
22:59 70.3 °F /  21.3 °C 67.3 °F /  19.6 °C 30in /  1014.4hPa NE 4.5mph /  7.3km/h 9mph /  14.5km/h 90% 0in /  0.0mm
23:04 70.3 °F /  21.3 °C 67.3 °F /  19.6 °C 30in /  1014.4hPa NE 5.2mph /  8.4km/h 8mph /  12.9km/h 90% 0in /  0.0mm
23:09 70.3 °F /  21.3 °C 67.3 °F /  19.6 °C 30in /  1014.4hPa NE 5.1mph /  8.2km/h 7mph /  11.3km/h 90% 0in /  0.0mm
23:14 70.3 °F /  21.3 °C 67.3 °F /  19.6 °C 30in /  1014.4hPa NE 4.7mph /  7.6km/h 7mph /  11.3km/h 90% 0in /  0.0mm
23:19 70.3 °F /  21.3 °C 67.3 °F /  19.6 °C 30in /  1014.6hPa NE 4.5mph /  7.3km/h 7mph /  11.3km/h 90% 0in /  0.0mm
23:24 70.3 °F /  21.3 °C 67.3 °F /  19.6 °C 30in /  1014.6hPa NE 4mph /  6.5km/h 7mph /  11.3km/h 90% 0in /  0.0mm
23:29 70.3 °F /  21.3 °C 67.3 °F /  19.6 °C 30in /  1014.6hPa ENE 3.9mph /  6.2km/h 5.2mph /  8.4km/h 90% 0in /  0.0mm
23:34 70.3 °F /  21.3 °C 67.3 °F /  19.6 °C 30in /  1014.6hPa NE 3.1mph /  5km/h 5mph /  8km/h 90% 0in /  0.0mm
23:39 70.3 °F /  21.3 °C 67.3 °F /  19.6 °C 30in /  1014.5hPa NE 3.1mph /  5km/h 5mph /  8km/h 90% 0in /  0.0mm
23:44 70.3 °F /  21.3 °C 67.3 °F /  19.6 °C 30in /  1014.5hPa NE 3.1mph /  5km/h 5mph /  8km/h 90% 0in /  0.0mm
23:49 70.2 °F /  21.2 °C 67.1 °F /  19.5 °C 30in /  1014.5hPa NE 3.1mph /  5km/h 5mph /  8km/h 90% 0in /  0.0mm
23:54 70.2 °F /  21.2 °C 67.1 °F /  19.5 °C 30in /  1014.4hPa ENE 3.1mph /  5km/h 5.8mph /  9.3km/h 90% 0in /  0.0mm
23:59 70.2 °F /  21.2 °C 67.1 °F /  19.5 °C 30in /  1014.4hPa NE 3.1mph /  5km/h 6mph /  9.7km/h 90% 0in /  0.0mm
Murcia-Puente Tocinos, España
Compliments of Weather Underground - 3.25 mb

La estación de MeteoMurcia.com, publica sus datos en los siguientes proyectos:

Weather Underground PWS IMURCIAP2 Meteoclimatic www.awekas.at

W3Counter
Web Analytics